Weather observations for the past three days for
Mineral Wells, Mineral Wells Airport
Metric (Imperial)
Date Time (cdt) Wind (kph) Vis. (km) Weather Sky Cond. Temperature (ºC) Relative Humidity Wind Chill (°C) Heat Index (°C) Pressure Precipitation (cm)
Air Dwpt 6 hour altimeter (cm) sea level (mb) 1 hr 3 hr 6 hr
Max. Min.
04 19:53 S 15 16.09 Fair CLR 25 17.8 64% 26 75.36 1003.6
04 18:53 S 22 16.09 Fair CLR 26.7 17.2 28.9 25.6 56% 27 75.39 1004.1
04 17:53 S 26 G 41 16.09 Fair CLR 27.2 17.8 57% 28 75.41 1004.4
04 15:53 S 26 G 41 16.09 Fair CLR 28.9 17.2 49% 29 75.51 1005.6
04 14:53 S 20 G 39 16.09 Fair CLR 28.3 16.1 48% 29 75.62 1007.0
04 13:53 S 22 G 39 16.09 Fair CLR 27.2 16.1 51% 28 75.67 1007.8
04 12:53 S 28 16.09 Fair CLR 26.1 15.6 26.1 12.8 52% 27 75.74 1008.7
04 11:53 S 28 G 50 16.09 Fair CLR 24.4 15 56% 26 75.79 1009.5
04 10:53 S 30 16.09 Fair CLR 22.2 14.4 61% 75.87 1010.4
04 09:53 S 30 G 43 16.09 Fair CLR 20.6 13.9 66% 75.92 1011.0
04 08:53 S 20 G 31 16.09 Fair CLR 17.8 12.8 73% 75.92 1011.1
04 07:53 SE 13 16.09 Fair CLR 15 11.7 81% 75.92 1011.2
04 06:53 SE 19 16.09 Fair CLR 12.8 10.6 15.6 12.2 87% 75.87 1010.6
04 05:53 SE 15 16.09 Fair CLR 12.8 9.4 80% 75.9 1010.8
04 04:53 SE 15 16.09 Fair CLR 12.2 9.4 83% 75.95 1011.4
04 03:53 SE 13 16.09 Fair CLR 12.2 9.4 83% 75.95 1011.4
04 02:53 SE 11 16.09 Fair CLR 12.2 9.4 83% 76 1012.1
04 01:53 SE 9 16.09 Fair CLR 12.8 9.4 80% 76.05 1012.8
04 00:53 SE 15 16.09 Fair CLR 15.6 9.4 24.4 15.6 67% 76.07 1013.1
03 23:53 SE 17 16.09 Fair CLR 16.7 8.9 60% 76.12 1013.8
03 22:53 S 17 16.09 Fair CLR 18.3 8.9 54% 76.15 1014.3
03 21:53 S 13 16.09 Fair CLR 17.8 8.9 56% 76.15 1014.1
03 20:53 S 13 16.09 Fair CLR 19.4 7.8 47% 76.1 1013.8
03 19:53 S 9 16.09 Fair CLR 21.7 7.8 41% 76.1 1013.6
03 18:53 S 19 16.09 Fair CLR 24.4 7.2 27.2 24.4 33% 25 76.12 1014.0
03 17:53 S 24 16.09 Fair CLR 26.1 7.2 30% 26 76.15 1014.4
03 16:53 S 17 16.09 Fair CLR 26.7 7.2 29% 26 76.2 1014.8
03 15:53 SW 26 G 41 16.09 Fair CLR 27.2 7.2 28% 26 76.28 1016.0
03 14:53 S 19 G 33 16.09 Fair CLR 26.7 6.7 28% 26 76.35 1017.1
03 13:53 SW 28 G 41 16.09 Fair CLR 26.7 6.7 28% 26 76.43 1017.8
03 12:53 SW 20 G 30 16.09 Fair CLR 26.1 9.4 26.1 9.4 35% 26 76.48 1018.8
03 11:53 W 17 16.09 Fair CLR 25 10 39% 26 76.56 1019.8
03 10:53 SW 17 16.09 Fair CLR 22.8 10.6 46% 76.61 1020.4
03 09:53 SW 17 16.09 Fair CLR 20.6 10 51% 76.61 1020.5
03 08:53 SE 6 16.09 Fair CLR 15 10.6 75% 76.61 1020.4
03 07:53 Calm 16.09 Fair CLR 12.2 9.4 83% 76.58 1020.1
03 06:53 SE 7 16.09 Fair CLR 9.4 7.8 12.2 8.9 90% 9 76.53 1019.4
03 05:53 SE 7 16.09 Fair CLR 10 8.3 89% 9 76.5 1019.0
03 04:53 SE 7 16.09 Fair CLR 10 7.8 86% 9 76.48 1018.9
03 03:53 SE 9 16.09 Fair CLR 10.6 8.3 86% 76.48 1018.7
03 02:53 SE 11 16.09 Fair CLR 11.1 8.3 83% 76.48 1018.7
03 01:53 SE 6 16.09 Fair CLR 12.2 8.9 80% 76.5 1019.3
03 00:53 E 6 16.09 Fair CLR 12.8 8.9 23.3 12.2 77% 76.5 1019.2
02 23:53 SE 7 16.09 Fair CLR 13.3 10 81% 76.48 1018.8
02 22:53 S 11 16.09 Fair CLR 17.2 6.7 50% 76.48 1018.6
02 21:53 S 13 16.09 Fair CLR 17.2 7.2 52% 76.45 1018.5
02 20:53 S 11 16.09 Fair CLR 18.3 7.8 51% 76.43 1018.2
02 19:53 S 11 16.09 Fair CLR 21.1 8.9 46% 76.4 1017.9
02 18:53 Calm 16.09 A Few Clouds FEW085 23.3 5.6 24.4 21.7 32% 76.4 1017.9
02 17:53 Vrbl 6 16.09 A Few Clouds FEW080 23.9 5.6 31% 25 76.4 1018.0
02 16:53 Calm 16.09 Fair CLR 23.9 6.7 33% 25 76.43 1018.3
02 15:53 Vrbl 6 16.09 Mostly Cloudy BKN080 23.3 6.1 33% 76.5 1019.2
02 14:53 Calm 16.09 Fair CLR 22.8 7.2 37% 76.56 1019.8
02 13:53 Vrbl 6 16.09 A Few Clouds FEW060 22.8 8.3 40% 76.58 1020.2
02 12:53 Calm 16.09 Fair CLR 21.7 6.7 22.2 8.9 38% 76.66 1021.1
02 11:53 Calm 16.09 Fair CLR 20.6 6.7 41% 76.68 1021.7
02 10:53 W 11 16.09 Fair CLR 19.4 9.4 53% 76.68 1021.6
02 09:53 W 7 16.09 Fair CLR 16.1 11.7 75% 76.68 1021.8
02 08:53 W 7 16.09 Fair CLR 12.2 10.6 90% 76.66 1021.5
02 07:53 Calm 16.09 Fair CLR 10.6 9.4 92% 76.61 1020.8
02 06:53 W 9 14.48 Fair CLR 8.9 8.3 11.1 7.2 96% 8 76.56 1020.2
02 05:53 Calm 0.40 Fog VV001 7.8 7.8 100% 76.48 1019.4
02 04:53 Calm 4.83 Fog/Mist CLR 9.4 9.4 100% 76.45 1018.9
02 03:53 Calm 6.44 Fog/Mist CLR 10.6 10 96% 76.45 1018.8
02 02:53 W 7 11.27 Fair CLR 9.4 9.4 100% 9 76.45 1019.0
02 01:53 W 6 16.09 Fair CLR 10.6 9.4 92% 76.48 1019.0
02 00:53 S 11 16.09 Fair CLR 12.2 9.4 16.7 11.7 83% 76.45 1018.5
01 23:53 S 9 12.87 Mostly Cloudy BKN060 12.8 11.1 90% 76.45 1018.8
01 22:53 Calm 16.09 Overcast OVC060 13.3 11.7 90% 76.43 1018.5
01 21:53 Calm 14.48 A Few Clouds FEW070 13.9 11.1 83% 76.4 1017.8
01 20:53 Calm 16.09 Overcast OVC110 14.4 11.1 81% 76.33 1017.1
Date Time (cdt) Wind (kph) Vis. (km) Weather Sky Cond. Air Dwpt Max. Min. Relative Humidity Wind Chill (°C) Heat Index (°C) altimeter (cm) sea level (mb) 1 hr 3 hr 6 hr
6 hour
Temperature (ºC) Pressure Precipitation (cm)